Terminal Aerodrome Forecast
Issued by NWS

Home | Current Version | Previous Version | Text Only | Print | Product List | Glossary On
Versions: 1 2 3 4 5 6 7 8 9 10 11 12 13
652
FTUS42 KGSP 291735
TAFAND
TAF
KAND 291735Z 2918/3018 04007KT P6SM -SHRA OVC080
     FM300000 03007KT P6SM VCSH BKN080
     FM300300 03004KT P6SM BKN120=

USA.gov is the U.S. government's official web portal to all federal, state and local government web resources and services.